createdAt,value
2023-03-05T00:00:48.540Z,96.05
2023-03-05T00:01:45.155Z,95.43
2023-03-05T00:02:42.237Z,94.24
2023-03-05T00:03:39.128Z,93.20
2023-03-05T00:04:36.105Z,92.45
2023-03-05T00:05:34.877Z,92.27
2023-03-05T00:06:32.460Z,91.61
2023-03-05T00:07:29.094Z,91.01
2023-03-05T00:08:25.909Z,90.42
2023-03-05T00:09:22.685Z,90.87
2023-03-05T00:10:19.421Z,90.31
2023-03-05T00:11:16.732Z,90.21
2023-03-05T00:12:13.305Z,90.67
2023-03-05T00:13:12.553Z,91.23
2023-03-05T00:14:10.386Z,91.70
2023-03-05T00:15:07.901Z,91.84
2023-03-05T00:16:06.638Z,91.59
2023-03-05T00:17:03.386Z,91.47
2023-03-05T00:17:59.967Z,91.59
2023-03-05T00:18:58.649Z,91.87
2023-03-05T00:19:57.069Z,91.82
2023-03-05T00:20:53.801Z,92.24
2023-03-05T00:21:50.419Z,92.52
2023-03-05T00:22:47.005Z,92.50
2023-03-05T00:23:43.708Z,92.59
2023-03-05T00:24:40.274Z,92.90
2023-03-05T00:25:36.970Z,93.28
2023-03-05T00:26:36.939Z,93.64
2023-03-05T00:27:33.496Z,93.88
2023-03-05T00:28:30.154Z,94.85
2023-03-05T00:29:29.598Z,95.47
2023-03-05T00:30:28.029Z,95.65
2023-03-05T00:31:30.519Z,95.72
2023-03-05T00:32:27.221Z,95.54
2023-03-05T00:33:23.886Z,95.83
2023-03-05T00:34:21.153Z,96.32
2023-03-05T00:35:17.891Z,96.30
2023-03-05T00:36:14.543Z,96.39
2023-03-05T00:37:12.690Z,96.01
2023-03-05T00:38:09.528Z,96.14
2023-03-05T00:39:06.121Z,95.85
2023-03-05T00:40:04.071Z,96.09
2023-03-05T00:41:00.666Z,96.32
2023-03-05T00:41:57.376Z,96.70
2023-03-05T00:42:53.916Z,96.60
2023-03-05T00:43:50.629Z,96.64
2023-03-05T00:44:49.532Z,96.44
2023-03-05T00:45:46.104Z,95.92
2023-03-05T00:46:42.759Z,96.27
2023-03-05T00:47:39.754Z,96.38
2023-03-05T00:48:36.567Z,96.10
2023-03-05T00:49:33.160Z,96.13
2023-03-05T00:50:32.098Z,95.53
2023-03-05T00:51:29.053Z,95.74
2023-03-05T00:52:25.876Z,96.14
2023-03-05T00:53:23.328Z,96.54
2023-03-05T00:54:21.073Z,96.86
2023-03-05T00:55:17.797Z,97.37
2023-03-05T00:56:14.538Z,97.38
2023-03-05T00:57:11.123Z,97.85
2023-03-05T00:58:07.718Z,97.78
2023-03-05T00:59:04.309Z,97.84
2023-03-05T01:00:00.863Z,97.83
2023-03-05T01:00:59.423Z,97.91
2023-03-05T01:01:56.014Z,97.85
2023-03-05T01:02:52.653Z,97.05
2023-03-05T01:03:49.206Z,96.33
2023-03-05T01:04:47.356Z,96.46
2023-03-05T01:05:44.384Z,95.79
2023-03-05T01:06:44.835Z,96.16
2023-03-05T01:07:41.750Z,96.69
2023-03-05T01:08:38.743Z,97.08
2023-03-05T01:09:35.352Z,96.95
2023-03-05T01:10:32.295Z,97.11
2023-03-05T01:11:28.927Z,96.93
2023-03-05T01:12:25.594Z,96.74
2023-03-05T01:13:22.327Z,96.76
2023-03-05T01:14:19.944Z,96.48
2023-03-05T01:15:16.563Z,96.23
2023-03-05T01:16:13.495Z,96.24
2023-03-05T01:17:10.154Z,96.36
2023-03-05T01:18:06.837Z,96.08
2023-03-05T01:19:03.692Z,95.85
2023-03-05T01:20:00.390Z,96.24
2023-03-05T01:20:57.066Z,95.89
2023-03-05T01:21:55.168Z,95.87
2023-03-05T01:22:51.796Z,95.88
2023-03-05T01:23:48.395Z,95.17
2023-03-05T01:24:45.103Z,94.82
2023-03-05T01:25:41.807Z,94.60
2023-03-05T01:26:38.444Z,94.51
2023-03-05T01:27:35.184Z,94.25
2023-03-05T01:28:32.707Z,94.05
2023-03-05T01:29:29.339Z,94.04
2023-03-05T01:30:26.024Z,93.90
2023-03-05T01:31:22.922Z,93.89
2023-03-05T01:32:19.624Z,93.87
2023-03-05T01:33:16.236Z,93.80
2023-03-05T01:34:13.821Z,93.69
2023-03-05T01:35:15.284Z,93.20
2023-03-05T01:36:16.756Z,93.53
2023-03-05T01:37:13.428Z,93.63
2023-03-05T01:38:10.050Z,93.19
2023-03-05T01:39:06.602Z,93.26
2023-03-05T01:40:03.565Z,93.08
2023-03-05T01:41:00.111Z,93.59
2023-03-05T01:41:56.699Z,93.19
2023-03-05T01:43:11.867Z,93.32
2023-03-05T01:44:36.279Z,93.70
2023-03-05T01:45:33.012Z,92.72
2023-03-05T01:46:37.114Z,92.17
2023-03-05T01:47:33.756Z,92.24
2023-03-05T01:48:30.610Z,92.40
2023-03-05T01:49:28.796Z,92.83
2023-03-05T01:50:27.530Z,93.42
2023-03-05T01:51:27.058Z,93.61
2023-03-05T01:52:26.590Z,93.36
2023-03-05T01:53:23.180Z,93.49
2023-03-05T01:54:21.936Z,93.96
2023-03-05T01:55:22.558Z,93.95
2023-03-05T01:56:19.322Z,94.13
2023-03-05T01:57:23.085Z,94.11
2023-03-05T01:58:19.646Z,94.24
2023-03-05T01:59:17.760Z,93.99
2023-03-05T02:00:19.117Z,93.50
2023-03-05T02:01:17.106Z,93.05
2023-03-05T02:02:14.232Z,92.77
2023-03-05T02:03:13.239Z,93.11
2023-03-05T02:04:14.642Z,93.53
2023-03-05T02:05:16.154Z,94.03
2023-03-05T02:06:13.602Z,93.16
2023-03-05T02:07:11.621Z,92.86
2023-03-05T02:08:10.975Z,92.48
2023-03-05T02:09:07.675Z,92.92
2023-03-05T02:10:32.459Z,93.34
2023-03-05T02:11:29.419Z,93.56
2023-03-05T02:12:26.083Z,93.61
2023-03-05T02:13:25.362Z,93.81
2023-03-05T02:14:25.980Z,93.55
2023-03-05T02:15:23.066Z,92.91
2023-03-05T02:16:19.705Z,92.56
2023-03-05T02:17:16.633Z,92.84
2023-03-05T02:18:13.996Z,93.26
2023-03-05T02:19:12.962Z,93.75
2023-03-05T02:20:16.051Z,94.35
2023-03-05T02:21:12.694Z,94.18
2023-03-05T02:22:14.887Z,94.41
2023-03-05T02:23:11.579Z,94.66
2023-03-05T02:24:14.268Z,94.59
2023-03-05T02:25:15.832Z,94.57
2023-03-05T02:26:12.441Z,94.01
2023-03-05T02:27:09.838Z,93.52
2023-03-05T02:28:13.288Z,93.41
2023-03-05T02:29:12.974Z,93.68
2023-03-05T02:30:10.343Z,93.64
2023-03-05T02:31:13.578Z,94.19
2023-03-05T02:32:11.074Z,94.88
2023-03-05T02:33:08.187Z,94.46
2023-03-05T02:34:05.201Z,95.14
2023-03-05T02:35:01.864Z,94.83
2023-03-05T02:35:58.517Z,94.88
2023-03-05T02:36:55.641Z,94.76
2023-03-05T02:37:52.389Z,94.84
2023-03-05T02:38:49.354Z,95.11
2023-03-05T02:39:45.999Z,95.02
2023-03-05T02:40:43.384Z,94.95
2023-03-05T02:41:40.070Z,95.24
2023-03-05T02:42:36.963Z,95.07
2023-03-05T02:43:33.609Z,95.37
2023-03-05T02:44:30.327Z,95.75
2023-03-05T02:45:27.245Z,95.58
2023-03-05T02:46:23.949Z,95.82
2023-03-05T02:47:20.704Z,95.52
2023-03-05T02:48:17.340Z,95.44
2023-03-05T02:49:14.083Z,95.58
2023-03-05T02:50:12.251Z,95.52
2023-03-05T02:51:09.486Z,94.98
2023-03-05T02:52:06.372Z,94.30
2023-03-05T02:53:03.122Z,93.88
2023-03-05T02:53:59.669Z,94.21
2023-03-05T02:54:56.232Z,94.64
2023-03-05T02:55:52.974Z,94.39
2023-03-05T02:56:50.440Z,94.23
2023-03-05T02:57:47.040Z,94.24
2023-03-05T02:58:43.706Z,94.15
2023-03-05T02:59:40.257Z,94.47
2023-03-05T03:00:36.858Z,94.93
2023-03-05T03:01:33.524Z,95.43
2023-03-05T03:02:30.141Z,95.44
2023-03-05T03:03:26.802Z,95.58
2023-03-05T03:04:23.415Z,95.62
2023-03-05T03:05:20.073Z,95.99
2023-03-05T03:06:16.682Z,95.58
2023-03-05T03:07:14.096Z,95.68
2023-03-05T03:08:11.446Z,95.51
2023-03-05T03:09:08.104Z,95.40
2023-03-05T03:10:05.918Z,95.57
2023-03-05T03:11:07.987Z,95.29
2023-03-05T03:12:05.918Z,95.07
2023-03-05T03:13:02.764Z,95.43
2023-03-05T03:14:00.293Z,95.56
2023-03-05T03:14:56.844Z,95.66
2023-03-05T03:16:12.778Z,95.68
2023-03-05T03:17:11.839Z,95.73
2023-03-05T03:18:08.485Z,95.35
2023-03-05T03:19:05.632Z,95.86
2023-03-05T03:20:07.659Z,95.88
2023-03-05T03:21:05.199Z,95.46
2023-03-05T03:22:01.840Z,96.24
2023-03-05T03:22:58.438Z,96.10
2023-03-05T03:23:55.079Z,96.11
2023-03-05T03:24:51.706Z,95.96
2023-03-05T03:25:48.391Z,95.89
2023-03-05T03:26:44.998Z,95.02
2023-03-05T03:27:41.753Z,94.54
2023-03-05T03:28:38.425Z,94.45
2023-03-05T03:29:35.372Z,94.08
2023-03-05T03:30:32.071Z,94.32
2023-03-05T03:31:28.699Z,94.42
2023-03-05T03:32:25.417Z,94.79
2023-03-05T03:33:22.453Z,94.70
2023-03-05T03:34:20.090Z,94.73
2023-03-05T03:35:16.685Z,95.26
2023-03-05T03:36:13.624Z,95.04
2023-03-05T03:37:10.728Z,95.39
2023-03-05T03:38:07.358Z,95.33
2023-03-05T03:39:05.994Z,95.19
2023-03-05T03:40:05.650Z,95.37
2023-03-05T03:41:02.279Z,95.24
2023-03-05T03:41:58.943Z,95.17
2023-03-05T03:42:55.615Z,94.41
2023-03-05T03:43:52.171Z,93.85
2023-03-05T03:44:49.583Z,93.88
2023-03-05T03:45:46.260Z,93.90
2023-03-05T03:46:44.657Z,94.26
2023-03-05T03:47:41.408Z,94.15
2023-03-05T03:48:38.214Z,94.79
2023-03-05T03:49:34.897Z,94.44
2023-03-05T03:50:31.473Z,94.03
2023-03-05T03:51:28.092Z,94.02
2023-03-05T03:52:24.769Z,94.17
2023-03-05T03:53:21.379Z,93.86
2023-03-05T03:54:18.917Z,94.38
2023-03-05T03:55:15.564Z,94.25
2023-03-05T03:56:12.194Z,94.43
2023-03-05T03:57:09.475Z,94.57
2023-03-05T03:58:06.345Z,94.42
2023-03-05T03:59:03.424Z,94.58
2023-03-05T04:00:00.863Z,94.52
2023-03-05T04:00:57.586Z,94.87
2023-03-05T04:01:54.151Z,95.12
2023-03-05T04:02:50.828Z,94.83
2023-03-05T04:03:47.644Z,94.88
2023-03-05T04:04:44.322Z,94.68
2023-03-05T04:05:41.056Z,94.92
2023-03-05T04:06:37.749Z,94.97
2023-03-05T04:07:34.350Z,94.72
2023-03-05T04:08:30.936Z,94.75
2023-03-05T04:09:27.664Z,94.93
2023-03-05T04:10:25.828Z,94.54
2023-03-05T04:11:22.455Z,94.59
2023-03-05T04:12:19.156Z,94.38
2023-03-05T04:13:15.722Z,94.76
2023-03-05T04:14:12.412Z,94.45
2023-03-05T04:15:10.730Z,94.63
2023-03-05T04:16:07.683Z,94.92
2023-03-05T04:17:04.377Z,94.80
2023-03-05T04:18:01.023Z,95.06
2023-03-05T04:18:57.625Z,95.16
2023-03-05T04:19:54.305Z,95.36
2023-03-05T04:20:50.980Z,94.69
2023-03-05T04:21:47.668Z,94.55
2023-03-05T04:22:44.306Z,94.47
2023-03-05T04:23:41.189Z,94.70
2023-03-05T04:24:38.753Z,94.38
2023-03-05T04:25:35.296Z,95.01
2023-03-05T04:26:31.847Z,94.90
2023-03-05T04:27:28.420Z,94.86
2023-03-05T04:28:25.088Z,94.50
2023-03-05T04:29:22.364Z,94.94
2023-03-05T04:30:19.122Z,94.80
2023-03-05T04:31:15.869Z,94.41
2023-03-05T04:32:12.535Z,94.17
2023-03-05T04:33:09.108Z,94.29
2023-03-05T04:34:05.735Z,94.74
2023-03-05T04:35:02.433Z,94.86
2023-03-05T04:35:59.355Z,94.74
2023-03-05T04:36:55.980Z,94.19
2023-03-05T04:37:52.866Z,94.83
2023-03-05T04:38:49.433Z,94.61
2023-03-05T04:39:46.010Z,95.08
2023-03-05T04:40:42.696Z,95.08
2023-03-05T04:41:39.265Z,95.14
2023-03-05T04:42:35.902Z,95.38
2023-03-05T04:43:32.518Z,95.48
2023-03-05T04:44:29.158Z,95.47
2023-03-05T04:45:25.773Z,95.27
2023-03-05T04:46:22.448Z,95.44
2023-03-05T04:47:19.659Z,95.63
2023-03-05T04:48:17.042Z,95.71
2023-03-05T04:49:13.629Z,95.80
2023-03-05T04:50:11.352Z,95.86
2023-03-05T04:51:08.060Z,96.08
2023-03-05T04:52:04.777Z,96.16
2023-03-05T04:53:01.655Z,95.73
2023-03-05T04:53:58.512Z,95.78
2023-03-05T04:54:55.145Z,95.72
2023-03-05T04:55:55.649Z,95.42
2023-03-05T04:56:52.406Z,95.28
2023-03-05T04:57:49.610Z,95.34
2023-03-05T04:58:46.226Z,95.33
2023-03-05T04:59:42.840Z,95.35
2023-03-05T05:00:39.390Z,95.50
2023-03-05T05:01:36.069Z,95.57
2023-03-05T05:02:33.521Z,95.38
2023-03-05T05:03:30.268Z,95.33
2023-03-05T05:04:26.905Z,95.72
2023-03-05T05:05:26.712Z,96.23
2023-03-05T05:06:23.326Z,96.09
2023-03-05T05:07:20.075Z,96.37
2023-03-05T05:08:16.636Z,96.12
2023-03-05T05:09:13.348Z,96.28
2023-03-05T05:10:12.002Z,96.22
2023-03-05T05:11:08.774Z,96.23
2023-03-05T05:12:05.638Z,96.43
2023-03-05T05:13:02.264Z,96.30
2023-03-05T05:13:58.931Z,96.36
2023-03-05T05:14:55.690Z,96.71
2023-03-05T05:15:52.589Z,96.32
2023-03-05T05:16:49.272Z,96.57
2023-03-05T05:17:46.378Z,96.36
2023-03-05T05:18:42.953Z,96.53
2023-03-05T05:19:39.712Z,96.68
2023-03-05T05:20:36.316Z,96.69
2023-03-05T05:21:32.888Z,96.82
2023-03-05T05:22:29.543Z,96.43
2023-03-05T05:23:26.358Z,96.77
2023-03-05T05:24:22.988Z,96.68
2023-03-05T05:25:19.568Z,96.53
2023-03-05T05:26:16.218Z,96.52
2023-03-05T05:27:12.768Z,96.15
2023-03-05T05:28:11.170Z,96.38
2023-03-05T05:29:07.815Z,96.57
2023-03-05T05:30:05.157Z,96.29
2023-03-05T05:31:07.072Z,96.18
2023-03-05T05:32:03.691Z,95.90
2023-03-05T05:33:00.408Z,95.93
2023-03-05T05:33:57.021Z,95.82
2023-03-05T05:34:58.169Z,95.30
2023-03-05T05:35:54.808Z,95.01
2023-03-05T05:36:52.224Z,94.79
2023-03-05T05:37:48.833Z,95.04
2023-03-05T05:38:46.038Z,94.73
2023-03-05T05:39:42.590Z,94.93
2023-03-05T05:40:40.042Z,94.80
2023-03-05T05:41:36.597Z,94.51
2023-03-05T05:42:33.212Z,94.79
2023-03-05T05:43:29.766Z,95.00
2023-03-05T05:44:26.475Z,94.75
2023-03-05T05:45:23.150Z,94.60
2023-03-05T05:46:20.990Z,94.17
2023-03-05T05:47:18.347Z,94.08
2023-03-05T05:48:14.986Z,94.29
2023-03-05T05:49:11.726Z,94.57
2023-03-05T05:50:09.032Z,94.57
2023-03-05T05:51:20.368Z,94.71
2023-03-05T05:52:17.102Z,94.47
2023-03-05T05:53:13.666Z,94.47
2023-03-05T05:54:13.478Z,94.02
2023-03-05T05:55:10.627Z,93.95
2023-03-05T05:56:09.899Z,94.23
2023-03-05T05:57:06.635Z,94.14
2023-03-05T05:58:03.243Z,94.02
2023-03-05T05:58:59.945Z,94.32
2023-03-05T05:59:56.779Z,94.03
2023-03-05T06:00:53.408Z,93.92
2023-03-05T06:01:50.134Z,94.16
2023-03-05T06:02:46.932Z,94.54
2023-03-05T06:03:43.704Z,94.70
2023-03-05T06:04:40.435Z,94.88
2023-03-05T06:05:37.003Z,94.67
2023-03-05T06:06:35.039Z,94.51
2023-03-05T06:07:31.833Z,94.46
2023-03-05T06:08:28.370Z,94.17
2023-03-05T06:09:24.999Z,93.99
2023-03-05T06:10:21.608Z,94.01
2023-03-05T06:11:19.592Z,93.47
2023-03-05T06:12:16.521Z,93.58
2023-03-05T06:13:13.139Z,92.27
2023-03-05T06:14:12.354Z,92.09
2023-03-05T06:15:09.891Z,91.58
2023-03-05T06:16:10.892Z,91.22
2023-03-05T06:17:07.582Z,90.84
2023-03-05T06:18:04.198Z,90.24
2023-03-05T06:19:04.442Z,89.61
2023-03-05T06:20:01.336Z,88.59
2023-03-05T06:21:00.061Z,87.28
2023-03-05T06:21:56.705Z,86.79
2023-03-05T06:22:53.290Z,87.35
2023-03-05T06:23:51.281Z,87.13
2023-03-05T06:24:47.878Z,87.34
2023-03-05T06:25:44.525Z,87.39
2023-03-05T06:26:41.527Z,87.06
2023-03-05T06:27:38.839Z,87.53
2023-03-05T06:28:35.623Z,87.90
2023-03-05T06:29:32.422Z,87.58
2023-03-05T06:30:29.062Z,87.91
2023-03-05T06:31:27.631Z,86.48
2023-03-05T06:32:24.283Z,86.69
2023-03-05T06:33:20.967Z,87.25
2023-03-05T06:34:17.624Z,87.06
2023-03-05T06:35:14.254Z,86.85
2023-03-05T06:36:16.169Z,86.62
2023-03-05T06:37:12.806Z,87.04
2023-03-05T06:38:12.072Z,86.95
2023-03-05T06:39:08.770Z,86.48
2023-03-05T06:40:05.830Z,86.78
2023-03-05T06:41:09.327Z,86.74
2023-03-05T06:42:06.087Z,87.22
2023-03-05T06:43:02.666Z,87.84
2023-03-05T06:44:02.339Z,88.25
2023-03-05T06:44:59.022Z,88.02
2023-03-05T06:46:07.070Z,87.86
2023-03-05T06:47:05.662Z,87.21
2023-03-05T06:48:02.284Z,87.33
2023-03-05T06:49:01.186Z,87.50
2023-03-05T06:49:57.814Z,87.03
2023-03-05T06:50:54.458Z,86.61
2023-03-05T06:51:51.091Z,86.87
2023-03-05T06:52:50.000Z,86.98
2023-03-05T06:53:49.374Z,87.19
2023-03-05T06:54:46.215Z,87.14
2023-03-05T06:55:42.785Z,86.75
2023-03-05T06:56:41.106Z,86.48
2023-03-05T06:57:37.679Z,86.30
2023-03-05T06:58:34.268Z,86.33
2023-03-05T06:59:30.808Z,86.11
2023-03-05T07:00:29.791Z,86.06
2023-03-05T07:01:26.458Z,85.88
2023-03-05T07:02:23.157Z,85.33
2023-03-05T07:03:19.790Z,84.87
2023-03-05T07:04:17.163Z,85.27
2023-03-05T07:05:13.897Z,85.23
2023-03-05T07:06:13.500Z,85.42
2023-03-05T07:07:10.112Z,85.30
2023-03-05T07:08:07.069Z,84.89
2023-03-05T07:09:05.114Z,84.92
2023-03-05T07:10:01.906Z,84.97
2023-03-05T07:10:59.151Z,84.54
2023-03-05T07:11:55.799Z,84.41
2023-03-05T07:12:52.399Z,84.63
2023-03-05T07:13:49.689Z,85.11
2023-03-05T07:14:46.303Z,84.99
2023-03-05T07:15:44.016Z,84.44
2023-03-05T07:16:40.645Z,83.81
2023-03-05T07:17:37.307Z,83.33
2023-03-05T07:18:34.179Z,81.98
2023-03-05T07:19:30.769Z,82.22
2023-03-05T07:20:27.355Z,80.90
2023-03-05T07:21:27.004Z,81.37
2023-03-05T07:22:23.579Z,80.43
2023-03-05T07:23:20.156Z,78.70
2023-03-05T07:24:16.883Z,77.36
2023-03-05T07:25:13.961Z,77.66
2023-03-05T07:26:10.809Z,78.23
2023-03-05T07:27:07.482Z,79.16
2023-03-05T07:28:06.473Z,77.14
2023-03-05T07:29:03.818Z,77.82
2023-03-05T07:30:00.519Z,77.27
2023-03-05T07:30:59.321Z,75.81
2023-03-05T07:31:56.174Z,75.80
2023-03-05T07:32:52.749Z,75.61
2023-03-05T07:33:50.366Z,74.61
2023-03-05T07:34:46.962Z,73.78
2023-03-05T07:35:43.596Z,73.96
2023-03-05T07:36:40.607Z,74.64
2023-03-05T07:37:37.246Z,74.17
2023-03-05T07:38:33.858Z,74.76
2023-03-05T07:39:30.402Z,75.17
2023-03-05T07:40:26.999Z,74.67
2023-03-05T07:41:23.846Z,74.27
2023-03-05T07:42:20.594Z,74.13
2023-03-05T07:43:17.461Z,74.20
2023-03-05T07:44:14.138Z,73.34
2023-03-05T07:45:11.068Z,72.17
2023-03-05T07:46:09.949Z,70.92
2023-03-05T07:47:06.625Z,71.38
2023-03-05T07:48:03.338Z,71.55
2023-03-05T07:49:00.571Z,71.90
2023-03-05T07:49:57.190Z,71.36
2023-03-05T07:51:05.453Z,70.46
2023-03-05T07:52:02.050Z,71.33
2023-03-05T07:52:58.892Z,70.16
2023-03-05T07:53:57.610Z,69.23
2023-03-05T07:54:54.194Z,69.53
2023-03-05T07:55:50.801Z,70.50
2023-03-05T07:56:47.410Z,69.28
2023-03-05T07:57:44.078Z,68.89
2023-03-05T07:58:40.736Z,67.61
2023-03-05T07:59:38.296Z,68.98
2023-03-05T08:00:34.980Z,68.79
2023-03-05T08:01:33.021Z,67.21
2023-03-05T08:02:29.793Z,66.85
2023-03-05T08:03:26.529Z,66.51
2023-03-05T08:04:23.279Z,65.96
2023-03-05T08:05:19.869Z,66.20
2023-03-05T08:06:16.846Z,64.17
2023-03-05T08:07:16.813Z,65.41
2023-03-05T08:08:13.451Z,64.99
2023-03-05T08:09:10.484Z,64.88
2023-03-05T08:10:07.965Z,64.01
2023-03-05T08:11:06.818Z,65.50
2023-03-05T08:12:03.573Z,65.27
2023-03-05T08:13:00.251Z,63.19
2023-03-05T08:13:59.402Z,64.55
2023-03-05T08:14:55.979Z,64.13
2023-03-05T08:15:52.562Z,63.52
2023-03-05T08:16:52.602Z,63.87
2023-03-05T08:17:52.115Z,64.04
2023-03-05T08:18:48.836Z,64.04
2023-03-05T08:19:45.390Z,64.02
2023-03-05T08:20:41.933Z,63.74
2023-03-05T08:21:38.663Z,63.51
2023-03-05T08:22:35.527Z,62.47
2023-03-05T08:23:34.494Z,63.27
2023-03-05T08:24:31.142Z,61.23
2023-03-05T08:25:28.372Z,60.91
2023-03-05T08:26:27.805Z,59.22
2023-03-05T08:27:24.608Z,60.12
2023-03-05T08:28:21.297Z,60.87
2023-03-05T08:29:17.903Z,61.06
2023-03-05T08:30:18.558Z,60.94
2023-03-05T08:31:17.184Z,60.01
2023-03-05T08:32:13.874Z,59.27
2023-03-05T08:33:12.105Z,59.21
2023-03-05T08:34:08.679Z,59.32
2023-03-05T08:35:06.846Z,60.12
2023-03-05T08:36:04.046Z,58.83
2023-03-05T08:37:00.638Z,61.17
2023-03-05T08:37:57.404Z,62.39
2023-03-05T08:38:54.063Z,62.40
2023-03-05T08:39:50.827Z,60.94
2023-03-05T08:40:48.181Z,58.63
2023-03-05T08:41:44.895Z,58.80
2023-03-05T08:42:41.415Z,58.82
2023-03-05T08:43:38.020Z,59.73
2023-03-05T08:44:34.604Z,58.39
2023-03-05T08:45:31.352Z,59.16
2023-03-05T08:46:28.071Z,59.85
2023-03-05T08:47:26.704Z,59.17
2023-03-05T08:48:23.527Z,59.29
2023-03-05T08:49:20.142Z,60.32
2023-03-05T08:50:17.958Z,59.52
2023-03-05T08:51:18.402Z,60.97
2023-03-05T08:52:15.126Z,58.89
2023-03-05T08:53:11.912Z,60.53
2023-03-05T08:54:09.843Z,60.08
2023-03-05T08:55:06.638Z,59.76
2023-03-05T08:56:03.813Z,58.90
2023-03-05T08:57:00.664Z,59.08
2023-03-05T08:57:57.381Z,59.10
2023-03-05T08:58:54.556Z,58.29
2023-03-05T08:59:51.138Z,57.08
2023-03-05T09:00:47.737Z,57.67
2023-03-05T09:01:44.391Z,57.29
2023-03-05T09:02:41.136Z,58.46
2023-03-05T09:03:38.129Z,59.18
2023-03-05T09:04:34.673Z,59.76
2023-03-05T09:05:31.261Z,59.82
2023-03-05T09:06:28.218Z,60.37
2023-03-05T09:07:24.861Z,60.31
2023-03-05T09:08:21.745Z,60.11
2023-03-05T09:09:21.355Z,59.63
2023-03-05T09:10:18.548Z,59.54
2023-03-05T09:11:15.238Z,60.46
2023-03-05T09:12:13.402Z,59.70
2023-03-05T09:13:10.984Z,59.69
2023-03-05T09:14:07.763Z,59.30
2023-03-05T09:15:08.202Z,58.29
2023-03-05T09:16:08.225Z,59.90
2023-03-05T09:17:04.906Z,60.08
2023-03-05T09:18:01.715Z,59.44
2023-03-05T09:18:59.834Z,59.40
2023-03-05T09:19:56.441Z,58.64
2023-03-05T09:20:53.845Z,58.54
2023-03-05T09:21:50.685Z,58.27
2023-03-05T09:22:47.296Z,58.70
2023-03-05T09:23:45.042Z,58.84
2023-03-05T09:24:43.472Z,60.20
2023-03-05T09:25:41.295Z,59.61
2023-03-05T09:26:38.022Z,61.28
2023-03-05T09:27:38.868Z,60.20
2023-03-05T09:28:35.815Z,60.67
2023-03-05T09:29:32.533Z,60.36
2023-03-05T09:30:29.135Z,60.37
2023-03-05T09:31:25.771Z,59.41
2023-03-05T09:32:22.381Z,59.95
2023-03-05T09:33:19.082Z,61.27
2023-03-05T09:34:15.680Z,58.82
2023-03-05T09:35:12.444Z,58.91
2023-03-05T09:36:21.602Z,59.49
2023-03-05T09:37:18.186Z,58.38
2023-03-05T09:38:14.993Z,59.27
2023-03-05T09:39:11.656Z,60.99
2023-03-05T09:40:12.124Z,60.53
2023-03-05T09:41:43.009Z,58.97
2023-03-05T09:42:52.112Z,58.97
2023-03-05T09:44:26.295Z,60.19
2023-03-05T09:45:26.983Z,58.97
2023-03-05T09:46:36.026Z,59.63
2023-03-05T09:48:00.122Z,58.47
2023-03-05T09:49:22.513Z,60.24
2023-03-05T09:50:40.520Z,60.68
2023-03-05T09:51:41.594Z,60.91
2023-03-05T09:52:50.363Z,60.84
2023-03-05T09:53:52.286Z,61.03
2023-03-05T09:54:54.422Z,59.64
2023-03-05T09:55:56.855Z,59.72
2023-03-05T09:56:58.273Z,60.17
2023-03-05T09:58:02.968Z,59.40
2023-03-05T09:59:17.776Z,59.14
2023-03-05T10:00:33.225Z,59.10
2023-03-05T10:01:42.418Z,58.43
2023-03-05T10:02:50.138Z,57.77
2023-03-05T10:04:11.722Z,57.38
2023-03-05T10:05:08.333Z,57.99
2023-03-05T10:06:29.117Z,58.29
2023-03-05T10:07:31.781Z,58.70
2023-03-05T10:08:52.593Z,56.52
2023-03-05T10:10:00.498Z,56.82
2023-03-05T10:10:59.940Z,55.33
2023-03-05T10:11:59.346Z,55.46
2023-03-05T10:13:00.047Z,55.49
2023-03-05T10:13:56.874Z,55.77
2023-03-05T10:14:54.658Z,55.58
2023-03-05T10:16:22.695Z,57.13
2023-03-05T10:17:31.487Z,56.17
2023-03-05T10:18:46.456Z,56.74
2023-03-05T10:19:42.969Z,55.80
2023-03-05T10:21:01.493Z,57.00
2023-03-05T10:22:17.941Z,57.46
2023-03-05T10:23:24.680Z,57.18
2023-03-05T10:24:38.310Z,56.43
2023-03-05T10:25:34.872Z,55.78
2023-03-05T10:26:59.993Z,55.32
2023-03-05T10:28:21.602Z,56.45
2023-03-05T10:29:37.064Z,56.58
2023-03-05T10:30:33.656Z,57.94
2023-03-05T10:31:58.108Z,58.02
2023-03-05T10:33:03.807Z,57.76
2023-03-05T10:34:00.293Z,56.71
2023-03-05T10:35:28.942Z,56.90
2023-03-05T10:36:31.319Z,57.75
2023-03-05T10:37:35.419Z,57.94
2023-03-05T10:39:01.083Z,57.99
2023-03-05T10:40:36.003Z,57.89
2023-03-05T10:42:09.519Z,56.40
2023-03-05T10:43:24.466Z,55.67
2023-03-05T10:44:23.928Z,54.59
2023-03-05T10:45:27.669Z,55.85
2023-03-05T10:46:36.391Z,56.06
2023-03-05T10:47:48.233Z,55.69
2023-03-05T10:49:21.948Z,56.71
2023-03-05T10:50:22.018Z,56.34
2023-03-05T10:51:24.218Z,56.00
2023-03-05T10:52:35.040Z,55.70
2023-03-05T10:53:43.637Z,55.69
2023-03-05T10:54:42.882Z,57.39
2023-03-05T10:55:40.174Z,57.64
2023-03-05T10:56:37.159Z,56.78
2023-03-05T10:57:33.729Z,55.16
2023-03-05T10:58:30.622Z,55.44
2023-03-05T10:59:28.104Z,56.98
2023-03-05T11:00:27.824Z,56.26
2023-03-05T11:01:28.214Z,56.61
2023-03-05T11:02:25.129Z,57.40
2023-03-05T11:03:21.836Z,57.72
2023-03-05T11:04:28.951Z,57.60
2023-03-05T11:05:48.104Z,57.31
2023-03-05T11:06:48.742Z,57.96
2023-03-05T11:07:45.386Z,55.90
2023-03-05T11:08:42.428Z,57.12
2023-03-05T11:09:39.204Z,56.51
2023-03-05T11:10:35.761Z,57.46
2023-03-05T11:11:33.408Z,56.89
2023-03-05T11:12:39.816Z,55.70
2023-03-05T11:13:38.861Z,56.57
2023-03-05T11:14:38.762Z,55.53
2023-03-05T11:15:35.449Z,55.23
2023-03-05T11:16:46.980Z,55.26
2023-03-05T11:18:04.242Z,55.79
2023-03-05T11:19:20.833Z,56.32
2023-03-05T11:20:20.223Z,56.49
2023-03-05T11:21:27.557Z,55.67
2023-03-05T11:22:25.453Z,55.09
2023-03-05T11:23:24.094Z,55.51
2023-03-05T11:24:20.747Z,54.99
2023-03-05T11:25:21.378Z,55.04
2023-03-05T11:26:24.542Z,53.16
2023-03-05T11:27:50.632Z,52.61
2023-03-05T11:28:53.939Z,53.17
2023-03-05T11:29:50.997Z,52.89
2023-03-05T11:31:03.285Z,53.77
2023-03-05T11:32:35.456Z,52.16
2023-03-05T11:33:32.153Z,54.01
2023-03-05T11:34:35.456Z,54.27
2023-03-05T11:35:35.964Z,54.89
2023-03-05T11:36:40.114Z,54.55
2023-03-05T11:37:36.694Z,54.34
2023-03-05T11:38:34.801Z,54.96
2023-03-05T11:39:35.301Z,55.30
2023-03-05T11:40:37.213Z,54.65
2023-03-05T11:41:57.972Z,55.53
2023-03-05T11:42:57.323Z,54.88
2023-03-05T11:43:55.675Z,55.38
2023-03-05T11:44:55.961Z,54.87
2023-03-05T11:45:59.054Z,54.82
2023-03-05T11:47:13.209Z,55.74
2023-03-05T11:48:18.557Z,54.74
2023-03-05T11:49:20.772Z,54.40
2023-03-05T11:50:33.104Z,54.60
2023-03-05T11:51:43.701Z,55.53
2023-03-05T11:52:47.377Z,55.39
2023-03-05T11:53:46.057Z,55.19
2023-03-05T11:54:56.164Z,54.22
2023-03-05T11:55:59.977Z,54.06
2023-03-05T11:56:56.749Z,53.46
2023-03-05T11:58:05.487Z,53.45
2023-03-05T11:59:11.657Z,53.95
2023-03-05T12:00:13.055Z,53.99
2023-03-05T12:01:19.597Z,54.10
2023-03-05T12:02:25.641Z,53.98
2023-03-05T12:03:26.006Z,54.10
2023-03-05T12:04:23.840Z,53.56
2023-03-05T12:05:21.162Z,54.24
2023-03-05T12:06:33.093Z,54.16
2023-03-05T12:07:45.202Z,53.46
2023-03-05T12:08:47.078Z,54.57
2023-03-05T12:09:52.575Z,54.55
2023-03-05T12:10:49.198Z,54.45
2023-03-05T12:11:50.548Z,53.61
2023-03-05T12:13:15.361Z,53.70
2023-03-05T12:14:36.370Z,54.58
2023-03-05T12:15:35.020Z,53.37
2023-03-05T12:16:39.497Z,54.52
2023-03-05T12:18:15.417Z,53.21
2023-03-05T12:19:30.765Z,54.10
2023-03-05T12:20:33.408Z,52.81
2023-03-05T12:21:33.108Z,52.33
2023-03-05T12:22:37.090Z,53.71
2023-03-05T12:23:52.255Z,53.54
2023-03-05T12:24:49.349Z,52.88
2023-03-05T12:25:57.035Z,52.41
2023-03-05T12:26:53.604Z,53.32
2023-03-05T12:27:50.238Z,54.14
2023-03-05T12:28:47.080Z,53.40
2023-03-05T12:29:47.100Z,54.04
2023-03-05T12:30:43.692Z,54.61
2023-03-05T12:31:41.441Z,54.36
2023-03-05T12:32:44.221Z,54.35
2023-03-05T12:33:42.900Z,54.45
2023-03-05T12:34:42.954Z,54.97
2023-03-05T12:35:41.173Z,54.95
2023-03-05T12:36:39.645Z,54.03
2023-03-05T12:37:45.623Z,54.00
2023-03-05T12:38:42.243Z,53.63
2023-03-05T12:39:45.189Z,53.08
2023-03-05T12:40:41.850Z,53.91
2023-03-05T12:41:39.622Z,54.49
2023-03-05T12:42:39.222Z,54.73
2023-03-05T12:43:36.322Z,54.13
2023-03-05T12:44:33.002Z,54.36
2023-03-05T12:45:39.856Z,53.38